sensor_id;sensor_type;location;lat;lon;timestamp;P1;durP1;ratioP1;P2;durP2;ratioP2
73776;SDS011;62088;50.240;2.696;2024-01-30T00:00:50;9.50;;;6.82;;
73776;SDS011;62088;50.240;2.696;2024-01-30T00:03:18;11.63;;;6.40;;
73776;SDS011;62088;50.240;2.696;2024-01-30T00:05:45;9.32;;;6.25;;
73776;SDS011;62088;50.240;2.696;2024-01-30T00:08:12;9.73;;;6.18;;
73776;SDS011;62088;50.240;2.696;2024-01-30T00:10:39;13.63;;;6.47;;
73776;SDS011;62088;50.240;2.696;2024-01-30T00:13:06;11.57;;;6.38;;
73776;SDS011;62088;50.240;2.696;2024-01-30T00:15:34;11.10;;;7.40;;
73776;SDS011;62088;50.240;2.696;2024-01-30T00:18:01;12.48;;;6.43;;
73776;SDS011;62088;50.240;2.696;2024-01-30T00:20:28;14.00;;;7.22;;
73776;SDS011;62088;50.240;2.696;2024-01-30T00:22:55;11.35;;;6.60;;
73776;SDS011;62088;50.240;2.696;2024-01-30T00:25:22;13.05;;;6.13;;
73776;SDS011;62088;50.240;2.696;2024-01-30T00:27:49;12.85;;;7.88;;
73776;SDS011;62088;50.240;2.696;2024-01-30T00:30:16;15.20;;;8.05;;
73776;SDS011;62088;50.240;2.696;2024-01-30T00:32:43;15.80;;;7.53;;
73776;SDS011;62088;50.240;2.696;2024-01-30T00:35:10;14.70;;;8.07;;
73776;SDS011;62088;50.240;2.696;2024-01-30T00:37:38;13.68;;;7.47;;
73776;SDS011;62088;50.240;2.696;2024-01-30T00:40:05;14.70;;;7.90;;
73776;SDS011;62088;50.240;2.696;2024-01-30T00:42:33;12.63;;;8.27;;
73776;SDS011;62088;50.240;2.696;2024-01-30T00:45:00;17.27;;;7.97;;
73776;SDS011;62088;50.240;2.696;2024-01-30T00:47:27;11.95;;;8.63;;
73776;SDS011;62088;50.240;2.696;2024-01-30T00:49:55;12.13;;;7.25;;
73776;SDS011;62088;50.240;2.696;2024-01-30T00:52:22;11.57;;;7.50;;
73776;SDS011;62088;50.240;2.696;2024-01-30T00:54:49;11.80;;;7.53;;
73776;SDS011;62088;50.240;2.696;2024-01-30T00:57:17;15.27;;;8.32;;
73776;SDS011;62088;50.240;2.696;2024-01-30T00:59:44;14.18;;;7.43;;
73776;SDS011;62088;50.240;2.696;2024-01-30T01:02:11;10.55;;;7.95;;
73776;SDS011;62088;50.240;2.696;2024-01-30T01:04:38;15.23;;;7.65;;
73776;SDS011;62088;50.240;2.696;2024-01-30T01:07:05;12.90;;;8.40;;
73776;SDS011;62088;50.240;2.696;2024-01-30T01:09:32;11.18;;;7.25;;
73776;SDS011;62088;50.240;2.696;2024-01-30T01:11:59;11.95;;;7.82;;
73776;SDS011;62088;50.240;2.696;2024-01-30T01:14:26;12.77;;;7.82;;
73776;SDS011;62088;50.240;2.696;2024-01-30T01:16:53;16.35;;;8.57;;
73776;SDS011;62088;50.240;2.696;2024-01-30T01:19:20;11.82;;;7.80;;
73776;SDS011;62088;50.240;2.696;2024-01-30T01:21:48;12.25;;;8.77;;
73776;SDS011;62088;50.240;2.696;2024-01-30T01:24:15;14.00;;;8.05;;
73776;SDS011;62088;50.240;2.696;2024-01-30T01:26:42;12.35;;;7.50;;
73776;SDS011;62088;50.240;2.696;2024-01-30T01:29:09;11.35;;;7.60;;
73776;SDS011;62088;50.240;2.696;2024-01-30T01:31:38;14.18;;;8.45;;
73776;SDS011;62088;50.240;2.696;2024-01-30T01:34:10;14.68;;;8.43;;
73776;SDS011;62088;50.240;2.696;2024-01-30T01:36:38;12.75;;;8.25;;
73776;SDS011;62088;50.240;2.696;2024-01-30T01:39:06;13.38;;;8.68;;
73776;SDS011;62088;50.240;2.696;2024-01-30T01:41:33;11.55;;;7.88;;
73776;SDS011;62088;50.240;2.696;2024-01-30T01:44:00;12.27;;;8.02;;
73776;SDS011;62088;50.240;2.696;2024-01-30T01:46:27;12.73;;;7.57;;
73776;SDS011;62088;50.240;2.696;2024-01-30T01:48:58;10.63;;;7.43;;
73776;SDS011;62088;50.240;2.696;2024-01-30T01:51:29;18.73;;;8.23;;
73776;SDS011;62088;50.240;2.696;2024-01-30T01:53:58;15.00;;;8.07;;
73776;SDS011;62088;50.240;2.696;2024-01-30T01:56:28;11.50;;;7.38;;
73776;SDS011;62088;50.240;2.696;2024-01-30T01:58:59;16.27;;;8.57;;
73776;SDS011;62088;50.240;2.696;2024-01-30T02:01:31;11.70;;;7.80;;
73776;SDS011;62088;50.240;2.696;2024-01-30T02:03:59;14.05;;;7.75;;
73776;SDS011;62088;50.240;2.696;2024-01-30T02:06:27;14.40;;;8.48;;
73776;SDS011;62088;50.240;2.696;2024-01-30T02:08:54;10.70;;;7.00;;
73776;SDS011;62088;50.240;2.696;2024-01-30T02:11:22;14.10;;;7.68;;
73776;SDS011;62088;50.240;2.696;2024-01-30T02:13:50;14.88;;;8.23;;
73776;SDS011;62088;50.240;2.696;2024-01-30T02:16:17;13.50;;;7.72;;
73776;SDS011;62088;50.240;2.696;2024-01-30T02:18:44;12.27;;;7.68;;
73776;SDS011;62088;50.240;2.696;2024-01-30T02:21:16;12.75;;;8.05;;
73776;SDS011;62088;50.240;2.696;2024-01-30T02:23:44;13.73;;;9.25;;
73776;SDS011;62088;50.240;2.696;2024-01-30T02:26:14;12.25;;;7.82;;
73776;SDS011;62088;50.240;2.696;2024-01-30T02:28:41;10.73;;;7.05;;
73776;SDS011;62088;50.240;2.696;2024-01-30T02:31:08;12.88;;;7.47;;
73776;SDS011;62088;50.240;2.696;2024-01-30T02:33:35;13.32;;;8.25;;
73776;SDS011;62088;50.240;2.696;2024-01-30T02:36:02;12.13;;;7.70;;
73776;SDS011;62088;50.240;2.696;2024-01-30T02:38:29;12.73;;;7.68;;
73776;SDS011;62088;50.240;2.696;2024-01-30T02:40:57;15.10;;;8.70;;
73776;SDS011;62088;50.240;2.696;2024-01-30T02:43:24;15.55;;;8.57;;
73776;SDS011;62088;50.240;2.696;2024-01-30T02:45:51;15.73;;;8.13;;
73776;SDS011;62088;50.240;2.696;2024-01-30T02:48:18;13.77;;;8.23;;
73776;SDS011;62088;50.240;2.696;2024-01-30T02:50:45;13.25;;;7.95;;
73776;SDS011;62088;50.240;2.696;2024-01-30T02:53:13;13.32;;;8.23;;
73776;SDS011;62088;50.240;2.696;2024-01-30T02:55:40;14.30;;;8.45;;
73776;SDS011;62088;50.240;2.696;2024-01-30T02:58:07;14.82;;;8.02;;
73776;SDS011;62088;50.240;2.696;2024-01-30T03:00:34;12.35;;;8.68;;
73776;SDS011;62088;50.240;2.696;2024-01-30T03:03:02;12.85;;;8.20;;
73776;SDS011;62088;50.240;2.696;2024-01-30T03:05:29;11.27;;;8.15;;
73776;SDS011;62088;50.240;2.696;2024-01-30T03:07:56;14.02;;;8.35;;
73776;SDS011;62088;50.240;2.696;2024-01-30T03:10:23;12.90;;;7.68;;
73776;SDS011;62088;50.240;2.696;2024-01-30T03:12:50;14.52;;;8.50;;
73776;SDS011;62088;50.240;2.696;2024-01-30T03:15:17;15.35;;;8.35;;
73776;SDS011;62088;50.240;2.696;2024-01-30T03:17:45;12.60;;;8.13;;
73776;SDS011;62088;50.240;2.696;2024-01-30T03:20:12;14.40;;;7.80;;
73776;SDS011;62088;50.240;2.696;2024-01-30T03:22:39;12.32;;;8.55;;
73776;SDS011;62088;50.240;2.696;2024-01-30T03:25:06;17.33;;;8.90;;
73776;SDS011;62088;50.240;2.696;2024-01-30T03:27:33;13.15;;;7.88;;
73776;SDS011;62088;50.240;2.696;2024-01-30T03:30:00;14.85;;;7.97;;
73776;SDS011;62088;50.240;2.696;2024-01-30T03:32:28;14.43;;;8.10;;
73776;SDS011;62088;50.240;2.696;2024-01-30T03:34:55;13.18;;;8.30;;
73776;SDS011;62088;50.240;2.696;2024-01-30T03:37:22;17.50;;;9.30;;
73776;SDS011;62088;50.240;2.696;2024-01-30T03:39:49;13.02;;;7.60;;
73776;SDS011;62088;50.240;2.696;2024-01-30T03:42:16;11.32;;;7.63;;
73776;SDS011;62088;50.240;2.696;2024-01-30T03:44:44;12.23;;;8.25;;
73776;SDS011;62088;50.240;2.696;2024-01-30T03:47:11;11.85;;;8.07;;
73776;SDS011;62088;50.240;2.696;2024-01-30T03:49:38;12.82;;;8.68;;
73776;SDS011;62088;50.240;2.696;2024-01-30T03:52:05;14.40;;;8.60;;
73776;SDS011;62088;50.240;2.696;2024-01-30T03:54:32;13.70;;;8.23;;
73776;SDS011;62088;50.240;2.696;2024-01-30T03:56:59;12.18;;;8.05;;
73776;SDS011;62088;50.240;2.696;2024-01-30T03:59:26;13.52;;;8.18;;
73776;SDS011;62088;50.240;2.696;2024-01-30T04:01:54;14.68;;;9.05;;
73776;SDS011;62088;50.240;2.696;2024-01-30T04:04:21;15.10;;;8.10;;
73776;SDS011;62088;50.240;2.696;2024-01-30T04:06:49;11.50;;;7.53;;
73776;SDS011;62088;50.240;2.696;2024-01-30T04:09:16;16.73;;;9.02;;
73776;SDS011;62088;50.240;2.696;2024-01-30T04:11:43;13.13;;;8.07;;
73776;SDS011;62088;50.240;2.696;2024-01-30T04:14:10;16.23;;;9.20;;
73776;SDS011;62088;50.240;2.696;2024-01-30T04:16:37;15.38;;;7.88;;
73776;SDS011;62088;50.240;2.696;2024-01-30T04:19:04;13.55;;;8.90;;
73776;SDS011;62088;50.240;2.696;2024-01-30T04:21:32;11.13;;;7.28;;
73776;SDS011;62088;50.240;2.696;2024-01-30T04:23:59;18.00;;;7.47;;
73776;SDS011;62088;50.240;2.696;2024-01-30T04:26:26;13.32;;;7.47;;
73776;SDS011;62088;50.240;2.696;2024-01-30T04:28:53;11.55;;;8.00;;
73776;SDS011;62088;50.240;2.696;2024-01-30T04:31:20;11.80;;;7.35;;
73776;SDS011;62088;50.240;2.696;2024-01-30T04:33:47;11.85;;;7.07;;
73776;SDS011;62088;50.240;2.696;2024-01-30T04:36:14;12.00;;;7.63;;
73776;SDS011;62088;50.240;2.696;2024-01-30T04:38:41;11.55;;;7.50;;
73776;SDS011;62088;50.240;2.696;2024-01-30T04:41:08;13.10;;;7.30;;
73776;SDS011;62088;50.240;2.696;2024-01-30T04:43:36;13.65;;;8.02;;
73776;SDS011;62088;50.240;2.696;2024-01-30T04:46:03;10.48;;;7.05;;
73776;SDS011;62088;50.240;2.696;2024-01-30T04:48:31;12.77;;;7.25;;
73776;SDS011;62088;50.240;2.696;2024-01-30T04:50:58;14.80;;;7.18;;
73776;SDS011;62088;50.240;2.696;2024-01-30T04:53:28;15.20;;;8.70;;
73776;SDS011;62088;50.240;2.696;2024-01-30T04:55:56;13.10;;;8.48;;
73776;SDS011;62088;50.240;2.696;2024-01-30T04:58:23;9.80;;;6.65;;
73776;SDS011;62088;50.240;2.696;2024-01-30T05:00:50;13.27;;;7.78;;
73776;SDS011;62088;50.240;2.696;2024-01-30T05:03:19;13.77;;;7.80;;
73776;SDS011;62088;50.240;2.696;2024-01-30T05:05:46;12.13;;;7.80;;
73776;SDS011;62088;50.240;2.696;2024-01-30T05:08:13;17.83;;;7.55;;
73776;SDS011;62088;50.240;2.696;2024-01-30T05:10:40;12.10;;;7.22;;
73776;SDS011;62088;50.240;2.696;2024-01-30T05:13:07;12.50;;;6.78;;
73776;SDS011;62088;50.240;2.696;2024-01-30T05:15:35;11.18;;;7.38;;
73776;SDS011;62088;50.240;2.696;2024-01-30T05:18:02;14.35;;;7.35;;
73776;SDS011;62088;50.240;2.696;2024-01-30T05:20:29;12.52;;;7.55;;
73776;SDS011;62088;50.240;2.696;2024-01-30T05:22:56;12.15;;;7.80;;
73776;SDS011;62088;50.240;2.696;2024-01-30T05:25:23;15.63;;;7.97;;
73776;SDS011;62088;50.240;2.696;2024-01-30T05:27:51;12.60;;;8.23;;
73776;SDS011;62088;50.240;2.696;2024-01-30T05:30:18;13.57;;;7.47;;
73776;SDS011;62088;50.240;2.696;2024-01-30T05:32:45;12.98;;;7.38;;
73776;SDS011;62088;50.240;2.696;2024-01-30T05:35:14;11.65;;;7.53;;
73776;SDS011;62088;50.240;2.696;2024-01-30T05:37:41;18.52;;;6.97;;
73776;SDS011;62088;50.240;2.696;2024-01-30T05:40:08;12.50;;;7.07;;
73776;SDS011;62088;50.240;2.696;2024-01-30T05:42:36;16.23;;;7.20;;
73776;SDS011;62088;50.240;2.696;2024-01-30T05:45:03;11.75;;;7.60;;
73776;SDS011;62088;50.240;2.696;2024-01-30T05:47:31;14.52;;;7.75;;
73776;SDS011;62088;50.240;2.696;2024-01-30T05:49:58;11.32;;;7.40;;
73776;SDS011;62088;50.240;2.696;2024-01-30T05:52:26;15.20;;;7.45;;
73776;SDS011;62088;50.240;2.696;2024-01-30T05:54:53;14.85;;;7.72;;
73776;SDS011;62088;50.240;2.696;2024-01-30T05:57:27;14.73;;;7.72;;
73776;SDS011;62088;50.240;2.696;2024-01-30T05:59:54;15.23;;;7.57;;
73776;SDS011;62088;50.240;2.696;2024-01-30T06:02:21;10.65;;;6.88;;
73776;SDS011;62088;50.240;2.696;2024-01-30T06:04:48;9.93;;;6.10;;
73776;SDS011;62088;50.240;2.696;2024-01-30T06:07:16;9.48;;;6.30;;
73776;SDS011;62088;50.240;2.696;2024-01-30T06:09:44;25.92;;;7.82;;
73776;SDS011;62088;50.240;2.696;2024-01-30T06:12:13;14.88;;;6.50;;
73776;SDS011;62088;50.240;2.696;2024-01-30T06:14:40;15.75;;;6.38;;
73776;SDS011;62088;50.240;2.696;2024-01-30T06:17:12;12.75;;;6.30;;
73776;SDS011;62088;50.240;2.696;2024-01-30T06:19:40;14.07;;;7.00;;
73776;SDS011;62088;50.240;2.696;2024-01-30T06:22:08;17.67;;;6.68;;
73776;SDS011;62088;50.240;2.696;2024-01-30T06:24:35;15.52;;;7.80;;
73776;SDS011;62088;50.240;2.696;2024-01-30T06:27:02;10.32;;;6.47;;
73776;SDS011;62088;50.240;2.696;2024-01-30T06:29:29;11.50;;;6.63;;
73776;SDS011;62088;50.240;2.696;2024-01-30T06:31:56;11.32;;;6.90;;
73776;SDS011;62088;50.240;2.696;2024-01-30T06:34:24;11.90;;;6.97;;
73776;SDS011;62088;50.240;2.696;2024-01-30T06:36:53;10.90;;;6.57;;
73776;SDS011;62088;50.240;2.696;2024-01-30T06:39:20;14.05;;;6.93;;
73776;SDS011;62088;50.240;2.696;2024-01-30T06:41:47;12.18;;;6.90;;
73776;SDS011;62088;50.240;2.696;2024-01-30T06:44:14;15.27;;;6.90;;
73776;SDS011;62088;50.240;2.696;2024-01-30T06:46:41;13.45;;;7.55;;
73776;SDS011;62088;50.240;2.696;2024-01-30T06:49:08;18.17;;;7.68;;
73776;SDS011;62088;50.240;2.696;2024-01-30T06:51:35;10.52;;;6.43;;
73776;SDS011;62088;50.240;2.696;2024-01-30T06:54:02;12.80;;;6.72;;
73776;SDS011;62088;50.240;2.696;2024-01-30T06:56:30;14.85;;;7.65;;
73776;SDS011;62088;50.240;2.696;2024-01-30T06:58:57;10.23;;;6.93;;
73776;SDS011;62088;50.240;2.696;2024-01-30T07:01:29;14.93;;;6.82;;
73776;SDS011;62088;50.240;2.696;2024-01-30T07:03:57;18.15;;;7.35;;
73776;SDS011;62088;50.240;2.696;2024-01-30T07:06:24;10.68;;;6.65;;
73776;SDS011;62088;50.240;2.696;2024-01-30T07:08:52;11.52;;;6.47;;
73776;SDS011;62088;50.240;2.696;2024-01-30T07:11:19;14.65;;;7.40;;
73776;SDS011;62088;50.240;2.696;2024-01-30T07:13:50;12.52;;;6.88;;
73776;SDS011;62088;50.240;2.696;2024-01-30T07:16:18;12.15;;;6.68;;
73776;SDS011;62088;50.240;2.696;2024-01-30T07:18:45;15.73;;;6.82;;
73776;SDS011;62088;50.240;2.696;2024-01-30T07:21:12;25.33;;;6.28;;
73776;SDS011;62088;50.240;2.696;2024-01-30T07:23:39;18.38;;;5.95;;
73776;SDS011;62088;50.240;2.696;2024-01-30T07:26:07;11.65;;;4.88;;
73776;SDS011;62088;50.240;2.696;2024-01-30T07:28:35;12.27;;;4.40;;
73776;SDS011;62088;50.240;2.696;2024-01-30T07:31:02;11.68;;;4.10;;
73776;SDS011;62088;50.240;2.696;2024-01-30T07:33:30;18.15;;;4.15;;
73776;SDS011;62088;50.240;2.696;2024-01-30T07:35:57;13.15;;;4.18;;
73776;SDS011;62088;50.240;2.696;2024-01-30T07:38:24;10.18;;;3.33;;
73776;SDS011;62088;50.240;2.696;2024-01-30T07:40:51;19.90;;;4.07;;
73776;SDS011;62088;50.240;2.696;2024-01-30T07:43:18;15.23;;;4.25;;
73776;SDS011;62088;50.240;2.696;2024-01-30T07:45:46;14.93;;;3.85;;
73776;SDS011;62088;50.240;2.696;2024-01-30T07:48:14;9.15;;;3.13;;
73776;SDS011;62088;50.240;2.696;2024-01-30T07:50:41;14.23;;;3.28;;
73776;SDS011;62088;50.240;2.696;2024-01-30T07:53:08;10.90;;;2.53;;
73776;SDS011;62088;50.240;2.696;2024-01-30T07:55:35;19.33;;;3.15;;
73776;SDS011;62088;50.240;2.696;2024-01-30T07:58:02;10.88;;;2.97;;
73776;SDS011;62088;50.240;2.696;2024-01-30T08:00:31;15.07;;;3.45;;
73776;SDS011;62088;50.240;2.696;2024-01-30T08:02:58;11.05;;;3.40;;
73776;SDS011;62088;50.240;2.696;2024-01-30T08:05:28;10.50;;;2.58;;
73776;SDS011;62088;50.240;2.696;2024-01-30T08:07:55;11.63;;;2.05;;
73776;SDS011;62088;50.240;2.696;2024-01-30T08:10:22;7.40;;;1.90;;
73776;SDS011;62088;50.240;2.696;2024-01-30T08:12:50;8.70;;;1.88;;
73776;SDS011;62088;50.240;2.696;2024-01-30T08:15:17;6.18;;;1.88;;
73776;SDS011;62088;50.240;2.696;2024-01-30T08:17:44;10.07;;;2.15;;
73776;SDS011;62088;50.240;2.696;2024-01-30T08:20:11;6.38;;;1.95;;
73776;SDS011;62088;50.240;2.696;2024-01-30T08:22:40;6.00;;;1.58;;
73776;SDS011;62088;50.240;2.696;2024-01-30T08:25:07;10.77;;;2.38;;
73776;SDS011;62088;50.240;2.696;2024-01-30T08:27:36;5.63;;;1.25;;
73776;SDS011;62088;50.240;2.696;2024-01-30T08:30:06;10.70;;;1.48;;
73776;SDS011;62088;50.240;2.696;2024-01-30T08:32:33;4.82;;;0.95;;
73776;SDS011;62088;50.240;2.696;2024-01-30T08:35:01;3.75;;;0.93;;
73776;SDS011;62088;50.240;2.696;2024-01-30T08:37:30;4.25;;;0.88;;
73776;SDS011;62088;50.240;2.696;2024-01-30T08:39:57;2.25;;;0.80;;
73776;SDS011;62088;50.240;2.696;2024-01-30T08:42:25;5.32;;;0.80;;
73776;SDS011;62088;50.240;2.696;2024-01-30T08:44:52;3.60;;;0.85;;
73776;SDS011;62088;50.240;2.696;2024-01-30T08:47:19;4.15;;;0.90;;
73776;SDS011;62088;50.240;2.696;2024-01-30T08:49:47;3.60;;;0.85;;
73776;SDS011;62088;50.240;2.696;2024-01-30T08:52:14;1.90;;;0.60;;
73776;SDS011;62088;50.240;2.696;2024-01-30T08:54:41;3.45;;;0.68;;
73776;SDS011;62088;50.240;2.696;2024-01-30T08:57:08;2.15;;;0.60;;
73776;SDS011;62088;50.240;2.696;2024-01-30T08:59:35;3.17;;;0.50;;
73776;SDS011;62088;50.240;2.696;2024-01-30T09:02:02;0.98;;;0.40;;
73776;SDS011;62088;50.240;2.696;2024-01-30T09:04:38;3.00;;;0.63;;
73776;SDS011;62088;50.240;2.696;2024-01-30T09:07:06;2.55;;;0.63;;
73776;SDS011;62088;50.240;2.696;2024-01-30T09:09:39;1.55;;;0.50;;
73776;SDS011;62088;50.240;2.696;2024-01-30T09:12:07;3.92;;;0.80;;
73776;SDS011;62088;50.240;2.696;2024-01-30T09:14:38;5.18;;;0.50;;
73776;SDS011;62088;50.240;2.696;2024-01-30T09:17:06;1.60;;;0.43;;
73776;SDS011;62088;50.240;2.696;2024-01-30T09:19:34;1.33;;;0.38;;
73776;SDS011;62088;50.240;2.696;2024-01-30T09:22:02;3.70;;;0.80;;
73776;SDS011;62088;50.240;2.696;2024-01-30T09:24:29;0.90;;;0.43;;
73776;SDS011;62088;50.240;2.696;2024-01-30T09:26:57;3.25;;;0.68;;
73776;SDS011;62088;50.240;2.696;2024-01-30T09:29:24;3.50;;;0.70;;
73776;SDS011;62088;50.240;2.696;2024-01-30T09:31:52;5.50;;;0.93;;
73776;SDS011;62088;50.240;2.696;2024-01-30T09:34:19;1.00;;;0.40;;
73776;SDS011;62088;50.240;2.696;2024-01-30T09:36:47;3.70;;;0.73;;
73776;SDS011;62088;50.240;2.696;2024-01-30T09:39:14;0.88;;;0.45;;
73776;SDS011;62088;50.240;2.696;2024-01-30T09:41:49;1.17;;;0.60;;
73776;SDS011;62088;50.240;2.696;2024-01-30T09:44:22;0.70;;;0.28;;
73776;SDS011;62088;50.240;2.696;2024-01-30T09:46:51;1.35;;;0.35;;
73776;SDS011;62088;50.240;2.696;2024-01-30T09:49:18;1.42;;;0.50;;
73776;SDS011;62088;50.240;2.696;2024-01-30T09:51:47;1.08;;;0.30;;
73776;SDS011;62088;50.240;2.696;2024-01-30T09:54:16;0.65;;;0.63;;
73776;SDS011;62088;50.240;2.696;2024-01-30T09:56:47;0.70;;;0.40;;
73776;SDS011;62088;50.240;2.696;2024-01-30T09:59:14;2.10;;;0.50;;
73776;SDS011;62088;50.240;2.696;2024-01-30T10:01:42;2.47;;;0.43;;
73776;SDS011;62088;50.240;2.696;2024-01-30T10:04:10;1.92;;;0.50;;
73776;SDS011;62088;50.240;2.696;2024-01-30T10:06:37;2.53;;;0.65;;
73776;SDS011;62088;50.240;2.696;2024-01-30T10:09:04;3.20;;;0.45;;
73776;SDS011;62088;50.240;2.696;2024-01-30T10:11:31;3.38;;;0.75;;
73776;SDS011;62088;50.240;2.696;2024-01-30T10:13:59;2.85;;;0.50;;
73776;SDS011;62088;50.240;2.696;2024-01-30T10:16:27;2.92;;;0.40;;
73776;SDS011;62088;50.240;2.696;2024-01-30T10:18:54;2.28;;;0.52;;
73776;SDS011;62088;50.240;2.696;2024-01-30T10:21:21;1.75;;;0.30;;
73776;SDS011;62088;50.240;2.696;2024-01-30T10:23:49;2.92;;;0.52;;
73776;SDS011;62088;50.240;2.696;2024-01-30T10:26:16;1.10;;;0.40;;
73776;SDS011;62088;50.240;2.696;2024-01-30T10:28:47;1.80;;;0.40;;
73776;SDS011;62088;50.240;2.696;2024-01-30T10:31:18;1.75;;;0.35;;
73776;SDS011;62088;50.240;2.696;2024-01-30T10:33:45;8.32;;;1.17;;
73776;SDS011;62088;50.240;2.696;2024-01-30T10:36:13;7.85;;;1.45;;
73776;SDS011;62088;50.240;2.696;2024-01-30T10:38:46;2.03;;;0.38;;
73776;SDS011;62088;50.240;2.696;2024-01-30T10:41:19;3.85;;;0.65;;
73776;SDS011;62088;50.240;2.696;2024-01-30T10:46:31;2.35;;;0.40;;
73776;SDS011;62088;50.240;2.696;2024-01-30T10:49:01;4.60;;;0.70;;
73776;SDS011;62088;50.240;2.696;2024-01-30T10:51:29;1.55;;;0.73;;
73776;SDS011;62088;50.240;2.696;2024-01-30T10:53:58;2.65;;;0.70;;
73776;SDS011;62088;50.240;2.696;2024-01-30T10:56:26;2.03;;;0.47;;
73776;SDS011;62088;50.240;2.696;2024-01-30T10:58:54;2.75;;;0.73;;
73776;SDS011;62088;50.240;2.696;2024-01-30T11:01:24;3.78;;;0.90;;
73776;SDS011;62088;50.240;2.696;2024-01-30T11:03:53;5.07;;;0.63;;
73776;SDS011;62088;50.240;2.696;2024-01-30T11:06:23;6.18;;;1.45;;
73776;SDS011;62088;50.240;2.696;2024-01-30T11:09:01;2.30;;;0.70;;
73776;SDS011;62088;50.240;2.696;2024-01-30T11:11:49;6.30;;;0.82;;
73776;SDS011;62088;50.240;2.696;2024-01-30T11:14:22;4.80;;;0.90;;
73776;SDS011;62088;50.240;2.696;2024-01-30T11:19:24;4.70;;;0.70;;
73776;SDS011;62088;50.240;2.696;2024-01-30T11:24:20;9.77;;;1.30;;
73776;SDS011;62088;50.240;2.696;2024-01-30T11:26:49;2.28;;;0.65;;
73776;SDS011;62088;50.240;2.696;2024-01-30T11:29:25;6.05;;;1.05;;
73776;SDS011;62088;50.240;2.696;2024-01-30T11:31:56;2.92;;;0.70;;
73776;SDS011;62088;50.240;2.696;2024-01-30T11:34:25;10.20;;;0.90;;
73776;SDS011;62088;50.240;2.696;2024-01-30T11:36:54;4.25;;;0.90;;
73776;SDS011;62088;50.240;2.696;2024-01-30T11:39:27;2.85;;;0.40;;
73776;SDS011;62088;50.240;2.696;2024-01-30T11:41:55;6.15;;;0.98;;
73776;SDS011;62088;50.240;2.696;2024-01-30T11:44:23;8.57;;;1.48;;
73776;SDS011;62088;50.240;2.696;2024-01-30T11:46:51;3.70;;;0.85;;
73776;SDS011;62088;50.240;2.696;2024-01-30T11:49:19;3.58;;;0.88;;
73776;SDS011;62088;50.240;2.696;2024-01-30T11:51:46;7.03;;;2.05;;
73776;SDS011;62088;50.240;2.696;2024-01-30T11:54:17;4.50;;;1.45;;
73776;SDS011;62088;50.240;2.696;2024-01-30T11:56:44;4.72;;;0.70;;
73776;SDS011;62088;50.240;2.696;2024-01-30T11:59:11;3.22;;;0.85;;
73776;SDS011;62088;50.240;2.696;2024-01-30T12:01:38;3.92;;;0.60;;
73776;SDS011;62088;50.240;2.696;2024-01-30T12:04:07;3.40;;;0.60;;
73776;SDS011;62088;50.240;2.696;2024-01-30T12:06:37;10.48;;;1.33;;
73776;SDS011;62088;50.240;2.696;2024-01-30T12:09:05;5.93;;;0.90;;
73776;SDS011;62088;50.240;2.696;2024-01-30T12:11:48;2.38;;;1.23;;
73776;SDS011;62088;50.240;2.696;2024-01-30T12:14:18;3.65;;;0.60;;
73776;SDS011;62088;50.240;2.696;2024-01-30T12:16:49;4.55;;;0.80;;
73776;SDS011;62088;50.240;2.696;2024-01-30T12:19:23;2.90;;;0.68;;
73776;SDS011;62088;50.240;2.696;2024-01-30T12:21:57;3.05;;;0.50;;
73776;SDS011;62088;50.240;2.696;2024-01-30T12:24:27;3.75;;;0.70;;
73776;SDS011;62088;50.240;2.696;2024-01-30T12:26:58;3.78;;;0.98;;
73776;SDS011;62088;50.240;2.696;2024-01-30T12:29:26;3.90;;;1.10;;
73776;SDS011;62088;50.240;2.696;2024-01-30T12:32:19;4.82;;;0.73;;
73776;SDS011;62088;50.240;2.696;2024-01-30T12:34:46;3.10;;;0.77;;
73776;SDS011;62088;50.240;2.696;2024-01-30T12:37:26;5.45;;;0.88;;
73776;SDS011;62088;50.240;2.696;2024-01-30T12:39:54;3.25;;;0.85;;
73776;SDS011;62088;50.240;2.696;2024-01-30T12:42:21;4.80;;;0.80;;
73776;SDS011;62088;50.240;2.696;2024-01-30T12:44:49;4.53;;;1.13;;
73776;SDS011;62088;50.240;2.696;2024-01-30T12:47:16;2.55;;;0.45;;
73776;SDS011;62088;50.240;2.696;2024-01-30T12:49:44;5.47;;;1.08;;
73776;SDS011;62088;50.240;2.696;2024-01-30T12:52:11;2.50;;;0.60;;
73776;SDS011;62088;50.240;2.696;2024-01-30T12:54:39;2.22;;;0.60;;
73776;SDS011;62088;50.240;2.696;2024-01-30T12:57:07;5.43;;;0.60;;
73776;SDS011;62088;50.240;2.696;2024-01-30T12:59:34;3.60;;;1.20;;
73776;SDS011;62088;50.240;2.696;2024-01-30T13:02:01;3.60;;;0.85;;
73776;SDS011;62088;50.240;2.696;2024-01-30T13:04:29;3.30;;;1.00;;
73776;SDS011;62088;50.240;2.696;2024-01-30T13:06:57;4.50;;;1.00;;
73776;SDS011;62088;50.240;2.696;2024-01-30T13:09:24;4.20;;;1.15;;
73776;SDS011;62088;50.240;2.696;2024-01-30T13:11:51;6.75;;;2.05;;
73776;SDS011;62088;50.240;2.696;2024-01-30T13:14:18;4.50;;;1.23;;
73776;SDS011;62088;50.240;2.696;2024-01-30T13:16:46;4.25;;;1.15;;
73776;SDS011;62088;50.240;2.696;2024-01-30T13:19:15;4.13;;;0.80;;
73776;SDS011;62088;50.240;2.696;2024-01-30T13:21:42;2.50;;;0.70;;
73776;SDS011;62088;50.240;2.696;2024-01-30T13:24:10;5.60;;;1.08;;
73776;SDS011;62088;50.240;2.696;2024-01-30T13:26:36;3.08;;;0.82;;
73776;SDS011;62088;50.240;2.696;2024-01-30T13:29:04;6.78;;;1.08;;
73776;SDS011;62088;50.240;2.696;2024-01-30T13:31:31;4.55;;;0.82;;
73776;SDS011;62088;50.240;2.696;2024-01-30T13:33:58;2.50;;;0.70;;
73776;SDS011;62088;50.240;2.696;2024-01-30T13:36:25;8.07;;;1.35;;
73776;SDS011;62088;50.240;2.696;2024-01-30T13:38:52;6.13;;;1.25;;
73776;SDS011;62088;50.240;2.696;2024-01-30T13:41:21;2.20;;;0.52;;
73776;SDS011;62088;50.240;2.696;2024-01-30T13:43:49;3.67;;;0.88;;
73776;SDS011;62088;50.240;2.696;2024-01-30T13:46:16;3.40;;;1.05;;
73776;SDS011;62088;50.240;2.696;2024-01-30T13:48:43;8.60;;;1.35;;
73776;SDS011;62088;50.240;2.696;2024-01-30T13:51:10;7.55;;;1.77;;
73776;SDS011;62088;50.240;2.696;2024-01-30T13:53:58;7.53;;;1.33;;
73776;SDS011;62088;50.240;2.696;2024-01-30T13:56:25;6.88;;;1.38;;
73776;SDS011;62088;50.240;2.696;2024-01-30T13:58:53;2.78;;;0.98;;
73776;SDS011;62088;50.240;2.696;2024-01-30T14:01:40;5.30;;;1.63;;
73776;SDS011;62088;50.240;2.696;2024-01-30T14:04:08;6.38;;;1.20;;
73776;SDS011;62088;50.240;2.696;2024-01-30T14:06:38;2.95;;;0.80;;
73776;SDS011;62088;50.240;2.696;2024-01-30T14:09:16;9.85;;;1.65;;
73776;SDS011;62088;50.240;2.696;2024-01-30T14:11:43;2.25;;;0.80;;
73776;SDS011;62088;50.240;2.696;2024-01-30T14:14:10;5.95;;;0.90;;
73776;SDS011;62088;50.240;2.696;2024-01-30T14:16:37;4.03;;;1.05;;
73776;SDS011;62088;50.240;2.696;2024-01-30T14:19:05;5.88;;;1.10;;
73776;SDS011;62088;50.240;2.696;2024-01-30T14:21:32;4.70;;;1.25;;
73776;SDS011;62088;50.240;2.696;2024-01-30T14:23:59;4.90;;;1.00;;
73776;SDS011;62088;50.240;2.696;2024-01-30T14:26:26;7.50;;;1.52;;
73776;SDS011;62088;50.240;2.696;2024-01-30T14:28:53;3.33;;;1.23;;
73776;SDS011;62088;50.240;2.696;2024-01-30T14:31:21;2.47;;;0.95;;
73776;SDS011;62088;50.240;2.696;2024-01-30T14:33:51;6.13;;;0.95;;
73776;SDS011;62088;50.240;2.696;2024-01-30T14:36:18;4.80;;;0.93;;
73776;SDS011;62088;50.240;2.696;2024-01-30T14:38:46;4.30;;;0.70;;
73776;SDS011;62088;50.240;2.696;2024-01-30T14:41:13;4.00;;;1.10;;
73776;SDS011;62088;50.240;2.696;2024-01-30T14:43:41;16.52;;;1.42;;
73776;SDS011;62088;50.240;2.696;2024-01-30T14:46:08;4.35;;;1.02;;
73776;SDS011;62088;50.240;2.696;2024-01-30T14:48:35;4.85;;;0.95;;
73776;SDS011;62088;50.240;2.696;2024-01-30T14:51:02;5.05;;;0.90;;
73776;SDS011;62088;50.240;2.696;2024-01-30T14:53:29;2.78;;;1.00;;